sensor_id;sensor_type;location;lat;lon;timestamp;pressure;altitude;pressure_sealevel;temperature;humidity
41140;BME280;26881;48.784;9.192;2023-02-13T00:04:48;100549.38;;;3.88;88.14
41140;BME280;26881;48.784;9.192;2023-02-13T00:10:10;100547.63;;;3.72;88.75
41140;BME280;26881;48.784;9.192;2023-02-13T00:15:32;100546.78;;;3.62;88.99
41140;BME280;26881;48.784;9.192;2023-02-13T00:21:03;100547.63;;;3.59;89.21
41140;BME280;26881;48.784;9.192;2023-02-13T00:26:25;100545.91;;;3.60;89.19
41140;BME280;26881;48.784;9.192;2023-02-13T00:31:46;100547.66;;;3.87;87.80
41140;BME280;26881;48.784;9.192;2023-02-13T00:37:08;100539.00;;;3.64;88.85
41140;BME280;26881;48.784;9.192;2023-02-13T00:42:30;100536.41;;;3.73;88.22
41140;BME280;26881;48.784;9.192;2023-02-13T00:47:52;100541.59;;;3.64;89.01
41140;BME280;26881;48.784;9.192;2023-02-13T00:53:13;100538.97;;;3.47;88.97
41140;BME280;26881;48.784;9.192;2023-02-13T00:58:35;100541.59;;;3.57;88.71
41140;BME280;26881;48.784;9.192;2023-02-13T01:03:57;100541.53;;;3.37;88.97
41140;BME280;26881;48.784;9.192;2023-02-13T01:09:19;100533.78;;;3.30;89.71
41140;BME280;26881;48.784;9.192;2023-02-13T01:14:41;100534.66;;;3.24;89.56
41140;BME280;26881;48.784;9.192;2023-02-13T01:20:02;100538.03;;;3.09;90.07
41140;BME280;26881;48.784;9.192;2023-02-13T01:25:24;100533.75;;;3.17;91.01
41140;BME280;26881;48.784;9.192;2023-02-13T01:30:52;100530.28;;;3.22;90.41
41140;BME280;26881;48.784;9.192;2023-02-13T01:36:14;100524.28;;;3.18;90.90
41140;BME280;26881;48.784;9.192;2023-02-13T01:41:36;100526.00;;;3.28;90.86
41140;BME280;26881;48.784;9.192;2023-02-13T01:46:57;100526.03;;;3.30;90.03
41140;BME280;26881;48.784;9.192;2023-02-13T01:52:19;100530.38;;;3.52;88.53
41140;BME280;26881;48.784;9.192;2023-02-13T01:57:43;100529.50;;;3.53;88.50
41140;BME280;26881;48.784;9.192;2023-02-13T02:03:13;100523.44;;;3.37;88.35
41140;BME280;26881;48.784;9.192;2023-02-13T02:08:56;100519.97;;;3.12;89.19
41140;BME280;26881;48.784;9.192;2023-02-13T02:14:20;100529.44;;;3.10;89.47
41140;BME280;26881;48.784;9.192;2023-02-13T02:19:49;100532.00;;;3.01;89.02
41140;BME280;26881;48.784;9.192;2023-02-13T02:25:31;100528.50;;;2.87;88.05
41140;BME280;26881;48.784;9.192;2023-02-13T02:37:46;100525.03;;;2.91;87.87
41140;BME280;26881;48.784;9.192;2023-02-13T02:49:04;100522.41;;;2.79;88.54
41140;BME280;26881;48.784;9.192;2023-02-13T02:54:50;100515.53;;;2.76;89.30
41140;BME280;26881;48.784;9.192;2023-02-13T03:00:32;100508.72;;;3.04;88.23
41140;BME280;26881;48.784;9.192;2023-02-13T03:06:18;100520.81;;;3.11;87.43
41140;BME280;26881;48.784;9.192;2023-02-13T03:11:46;100527.66;;;3.00;88.79
41140;BME280;26881;48.784;9.192;2023-02-13T03:17:27;100522.34;;;2.57;89.61
41140;BME280;26881;48.784;9.192;2023-02-13T03:23:16;100532.53;;;2.37;88.67
41140;BME280;26881;48.784;9.192;2023-02-13T03:29:27;100530.03;;;2.45;89.48
41140;BME280;26881;48.784;9.192;2023-02-13T03:35:33;100534.34;;;2.50;89.06
41140;BME280;26881;48.784;9.192;2023-02-13T03:41:24;100532.75;;;2.77;88.89
41140;BME280;26881;48.784;9.192;2023-02-13T03:46:50;100532.75;;;2.77;89.11
41140;BME280;26881;48.784;9.192;2023-02-13T03:52:25;100549.91;;;2.64;88.63
41140;BME280;26881;48.784;9.192;2023-02-13T03:57:54;100536.19;;;2.73;89.49
41140;BME280;26881;48.784;9.192;2023-02-13T04:03:55;100551.69;;;2.76;88.60
41140;BME280;26881;48.784;9.192;2023-02-13T04:09:19;100554.22;;;2.62;88.29
41140;BME280;26881;48.784;9.192;2023-02-13T04:14:53;100569.75;;;2.70;87.60
41140;BME280;26881;48.784;9.192;2023-02-13T04:20:18;100567.09;;;2.58;87.91
41140;BME280;26881;48.784;9.192;2023-02-13T04:25:43;100561.03;;;2.51;87.94
41140;BME280;26881;48.784;9.192;2023-02-13T04:31:06;100569.59;;;2.41;88.07
41140;BME280;26881;48.784;9.192;2023-02-13T04:36:28;100569.66;;;2.50;87.45
41140;BME280;26881;48.784;9.192;2023-02-13T04:41:50;100564.41;;;2.36;88.77
41140;BME280;26881;48.784;9.192;2023-02-13T04:47:12;100566.19;;;2.48;87.88
41140;BME280;26881;48.784;9.192;2023-02-13T04:52:33;100569.63;;;2.47;87.46
41140;BME280;26881;48.784;9.192;2023-02-13T04:57:55;100574.88;;;2.62;86.88
41140;BME280;26881;48.784;9.192;2023-02-13T05:03:17;100579.84;;;2.30;86.99
41140;BME280;26881;48.784;9.192;2023-02-13T05:08:39;100587.66;;;2.42;86.83
41140;BME280;26881;48.784;9.192;2023-02-13T05:14:01;100580.69;;;2.30;87.20
41140;BME280;26881;48.784;9.192;2023-02-13T05:19:23;100575.41;;;2.10;88.16
41140;BME280;26881;48.784;9.192;2023-02-13T05:24:44;100578.16;;;2.34;87.47
41140;BME280;26881;48.784;9.192;2023-02-13T05:30:06;100579.09;;;2.45;86.58
41140;BME280;26881;48.784;9.192;2023-02-13T05:35:29;100579.00;;;2.31;86.70
41140;BME280;26881;48.784;9.192;2023-02-13T05:40:51;100582.41;;;2.28;87.49
41140;BME280;26881;48.784;9.192;2023-02-13T05:46:13;100580.50;;;2.01;87.74
41140;BME280;26881;48.784;9.192;2023-02-13T05:51:35;100578.88;;;2.16;87.36
41140;BME280;26881;48.784;9.192;2023-02-13T05:56:57;100574.63;;;2.19;87.18
41140;BME280;26881;48.784;9.192;2023-02-13T06:02:18;100579.75;;;2.16;87.20
41140;BME280;26881;48.784;9.192;2023-02-13T06:07:40;100564.25;;;2.15;87.64
41140;BME280;26881;48.784;9.192;2023-02-13T06:13:02;100571.69;;;1.78;88.87
41140;BME280;26881;48.784;9.192;2023-02-13T06:18:23;100574.34;;;1.85;89.49
41140;BME280;26881;48.784;9.192;2023-02-13T06:23:45;100585.53;;;1.86;89.73
41140;BME280;26881;48.784;9.192;2023-02-13T06:29:07;100583.72;;;1.76;90.05
41140;BME280;26881;48.784;9.192;2023-02-13T06:34:29;100582.94;;;1.84;90.17
41140;BME280;26881;48.784;9.192;2023-02-13T06:39:51;100581.22;;;1.82;89.90
41140;BME280;26881;48.784;9.192;2023-02-13T06:45:13;100587.47;;;2.10;88.46
41140;BME280;26881;48.784;9.192;2023-02-13T06:50:35;100588.50;;;2.34;86.89
41140;BME280;26881;48.784;9.192;2023-02-13T06:55:57;100590.06;;;2.13;87.51
41140;BME280;26881;48.784;9.192;2023-02-13T07:01:18;100586.78;;;2.39;86.49
41140;BME280;26881;48.784;9.192;2023-02-13T07:06:40;100590.31;;;2.50;85.85
41140;BME280;26881;48.784;9.192;2023-02-13T07:12:05;100597.03;;;2.25;87.45
41140;BME280;26881;48.784;9.192;2023-02-13T07:17:27;100599.66;;;2.32;86.56
41140;BME280;26881;48.784;9.192;2023-02-13T07:22:49;100597.13;;;2.39;86.60
41140;BME280;26881;48.784;9.192;2023-02-13T07:28:11;100605.66;;;2.27;87.21
41140;BME280;26881;48.784;9.192;2023-02-13T07:33:40;100600.47;;;2.28;88.09
41140;BME280;26881;48.784;9.192;2023-02-13T07:39:02;100604.75;;;2.22;87.43
41140;BME280;26881;48.784;9.192;2023-02-13T07:44:24;100618.44;;;2.11;88.82
41140;BME280;26881;48.784;9.192;2023-02-13T07:49:46;100620.09;;;2.06;89.02
41140;BME280;26881;48.784;9.192;2023-02-13T07:55:08;100617.63;;;2.19;88.54
41140;BME280;26881;48.784;9.192;2023-02-13T08:00:32;100607.38;;;2.29;87.75
41140;BME280;26881;48.784;9.192;2023-02-13T08:05:53;100607.22;;;2.08;89.04
41140;BME280;26881;48.784;9.192;2023-02-13T08:11:25;100609.91;;;2.20;89.46
41140;BME280;26881;48.784;9.192;2023-02-13T08:17:08;100609.22;;;2.43;88.16
41140;BME280;26881;48.784;9.192;2023-02-13T08:22:30;100608.50;;;2.67;86.59
41140;BME280;26881;48.784;9.192;2023-02-13T08:27:51;100617.97;;;2.66;86.36
41140;BME280;26881;48.784;9.192;2023-02-13T08:33:13;100605.09;;;2.79;86.86
41140;BME280;26881;48.784;9.192;2023-02-13T08:38:35;100599.13;;;2.89;86.60
41140;BME280;26881;48.784;9.192;2023-02-13T08:43:57;100590.56;;;2.99;86.35
41140;BME280;26881;48.784;9.192;2023-02-13T08:49:18;100588.03;;;3.08;87.03
41140;BME280;26881;48.784;9.192;2023-02-13T08:54:40;100581.16;;;3.21;86.46
41140;BME280;26881;48.784;9.192;2023-02-13T09:00:02;100583.78;;;3.35;86.59
41140;BME280;26881;48.784;9.192;2023-02-13T09:05:24;100589.00;;;3.38;86.89
41140;BME280;26881;48.784;9.192;2023-02-13T09:10:46;100587.28;;;3.43;87.32
41140;BME280;26881;48.784;9.192;2023-02-13T09:16:09;100592.50;;;3.71;85.83
41140;BME280;26881;48.784;9.192;2023-02-13T09:21:31;100586.47;;;3.81;85.23
41140;BME280;26881;48.784;9.192;2023-02-13T09:26:52;100583.00;;;3.74;85.83
41140;BME280;26881;48.784;9.192;2023-02-13T09:32:14;100586.47;;;3.92;85.51
41140;BME280;26881;48.784;9.192;2023-02-13T09:37:37;100588.22;;;4.17;84.11
41140;BME280;26881;48.784;9.192;2023-02-13T09:43:10;100583.88;;;4.36;82.48
41140;BME280;26881;48.784;9.192;2023-02-13T09:48:36;100593.34;;;4.33;83.75
41140;BME280;26881;48.784;9.192;2023-02-13T09:54:05;100597.66;;;4.55;81.80
41140;BME280;26881;48.784;9.192;2023-02-13T10:05:41;100592.41;;;4.71;80.91
41140;BME280;26881;48.784;9.192;2023-02-13T10:16:48;100584.56;;;4.89;80.15
41140;BME280;26881;48.784;9.192;2023-02-13T10:27:59;100588.88;;;5.04;80.25
41140;BME280;26881;48.784;9.192;2023-02-13T10:33:28;100583.56;;;5.27;78.28
41140;BME280;26881;48.784;9.192;2023-02-13T10:39:01;100590.41;;;5.40;78.05
41140;BME280;26881;48.784;9.192;2023-02-13T10:44:46;100579.13;;;5.51;77.65
41140;BME280;26881;48.784;9.192;2023-02-13T10:55:58;100559.09;;;5.68;77.42
41140;BME280;26881;48.784;9.192;2023-02-13T11:01:46;100562.44;;;5.82;76.58
41140;BME280;26881;48.784;9.192;2023-02-13T11:07:14;100539.75;;;6.06;75.01
41140;BME280;26881;48.784;9.192;2023-02-13T11:12:36;100540.59;;;6.11;74.93
41140;BME280;26881;48.784;9.192;2023-02-13T11:18:03;100544.81;;;6.23;74.53
41140;BME280;26881;48.784;9.192;2023-02-13T11:23:36;100548.09;;;6.40;73.23
41140;BME280;26881;48.784;9.192;2023-02-13T11:29:04;100541.00;;;6.54;71.85
41140;BME280;26881;48.784;9.192;2023-02-13T11:34:30;100540.78;;;6.76;71.42
41140;BME280;26881;48.784;9.192;2023-02-13T11:39:57;100538.94;;;6.84;70.40
41140;BME280;26881;48.784;9.192;2023-02-13T11:45:21;100536.19;;;6.96;69.74
41140;BME280;26881;48.784;9.192;2023-02-13T11:50:50;100532.66;;;7.01;68.71
41140;BME280;26881;48.784;9.192;2023-02-13T11:56:14;100522.97;;;7.12;68.50
41140;BME280;26881;48.784;9.192;2023-02-13T12:01:36;100529.16;;;7.05;68.51
41140;BME280;26881;48.784;9.192;2023-02-13T12:07:03;100526.38;;;7.17;67.59
41140;BME280;26881;48.784;9.192;2023-02-13T12:12:41;100526.16;;;7.32;67.28
41140;BME280;26881;48.784;9.192;2023-02-13T12:23:55;100514.16;;;7.78;64.89
41140;BME280;26881;48.784;9.192;2023-02-13T12:29:48;100516.59;;;7.90;64.92
41140;BME280;26881;48.784;9.192;2023-02-13T12:47:07;100501.72;;;8.45;62.22
41140;BME280;26881;48.784;9.192;2023-02-13T12:52:38;100495.03;;;8.75;61.55
41140;BME280;26881;48.784;9.192;2023-02-13T13:14:55;100475.44;;;8.98;60.25
41140;BME280;26881;48.784;9.192;2023-02-13T13:20:42;100469.50;;;8.90;59.86
41140;BME280;26881;48.784;9.192;2023-02-13T13:26:15;100466.78;;;8.94;61.06
41140;BME280;26881;48.784;9.192;2023-02-13T13:31:39;100473.66;;;9.00;60.42
41140;BME280;26881;48.784;9.192;2023-02-13T13:43:04;100466.59;;;9.02;60.44
41140;BME280;26881;48.784;9.192;2023-02-13T13:48:44;100466.59;;;9.03;60.64
41140;BME280;26881;48.784;9.192;2023-02-13T14:10:59;100454.06;;;9.18;59.97
41140;BME280;26881;48.784;9.192;2023-02-13T14:28:00;100459.06;;;9.28;59.93
41140;BME280;26881;48.784;9.192;2023-02-13T14:33:25;100465.22;;;9.26;60.08
41140;BME280;26881;48.784;9.192;2023-02-13T14:38:56;100459.81;;;9.32;60.36
41140;BME280;26881;48.784;9.192;2023-02-13T14:44:24;100453.72;;;9.33;60.59
41140;BME280;26881;48.784;9.192;2023-02-13T14:49:48;100459.81;;;9.32;60.65
41140;BME280;26881;48.784;9.192;2023-02-13T14:55:30;100451.88;;;9.37;59.91
41140;BME280;26881;48.784;9.192;2023-02-13T15:01:27;100445.81;;;9.36;59.10
41140;BME280;26881;48.784;9.192;2023-02-13T15:06:50;100440.44;;;9.42;59.84
41140;BME280;26881;48.784;9.192;2023-02-13T15:12:26;100439.66;;;9.39;59.97
41140;BME280;26881;48.784;9.192;2023-02-13T15:17:49;100436.28;;;9.35;59.39
41140;BME280;26881;48.784;9.192;2023-02-13T15:23:19;100433.72;;;9.32;60.05
41140;BME280;26881;48.784;9.192;2023-02-13T15:28:57;100428.03;;;9.16;59.59
41140;BME280;26881;48.784;9.192;2023-02-13T15:34:23;100428.91;;;9.15;60.99
41140;BME280;26881;48.784;9.192;2023-02-13T15:39:45;100424.72;;;9.08;59.83
41140;BME280;26881;48.784;9.192;2023-02-13T15:45:14;100430.78;;;9.08;59.95
41140;BME280;26881;48.784;9.192;2023-02-13T15:50:40;100440.13;;;8.81;59.96
41140;BME280;26881;48.784;9.192;2023-02-13T15:56:04;100443.66;;;8.79;62.37
41140;BME280;26881;48.784;9.192;2023-02-13T16:01:26;100436.97;;;8.65;63.59
41140;BME280;26881;48.784;9.192;2023-02-13T16:06:49;100441.28;;;8.67;62.72
41140;BME280;26881;48.784;9.192;2023-02-13T16:12:20;100446.09;;;8.44;64.69
41140;BME280;26881;48.784;9.192;2023-02-13T16:17:44;100447.91;;;8.41;63.92
41140;BME280;26881;48.784;9.192;2023-02-13T16:23:15;100442.22;;;8.19;66.14
41140;BME280;26881;48.784;9.192;2023-02-13T16:28:38;100446.19;;;7.92;65.11
41140;BME280;26881;48.784;9.192;2023-02-13T16:34:13;100433.34;;;7.82;67.54
41140;BME280;26881;48.784;9.192;2023-02-13T16:39:34;100443.31;;;7.59;67.84
41140;BME280;26881;48.784;9.192;2023-02-13T16:45:24;100441.91;;;7.39;69.69
41140;BME280;26881;48.784;9.192;2023-02-13T16:50:54;100449.09;;;7.24;69.90
41140;BME280;26881;48.784;9.192;2023-02-13T16:56:15;100455.28;;;7.15;71.48
41140;BME280;26881;48.784;9.192;2023-02-13T17:01:37;100458.97;;;7.02;71.41
41140;BME280;26881;48.784;9.192;2023-02-13T17:06:59;100463.31;;;7.00;70.69
41140;BME280;26881;48.784;9.192;2023-02-13T17:12:21;100470.47;;;6.84;71.78
41140;BME280;26881;48.784;9.192;2023-02-13T17:17:44;100468.84;;;6.77;71.76
41140;BME280;26881;48.784;9.192;2023-02-13T17:23:06;100475.00;;;6.68;71.21
41140;BME280;26881;48.784;9.192;2023-02-13T17:28:32;100480.34;;;6.56;72.29
41140;BME280;26881;48.784;9.192;2023-02-13T17:33:54;100497.06;;;6.33;71.59
41140;BME280;26881;48.784;9.192;2023-02-13T17:39:15;100499.66;;;6.31;71.62
41140;BME280;26881;48.784;9.192;2023-02-13T17:44:37;100498.25;;;6.01;72.65
41140;BME280;26881;48.784;9.192;2023-02-13T17:49:59;100500.03;;;5.93;73.49
41140;BME280;26881;48.784;9.192;2023-02-13T17:55:32;100505.34;;;5.81;73.26
41140;BME280;26881;48.784;9.192;2023-02-13T18:00:54;100503.56;;;5.86;73.42
41140;BME280;26881;48.784;9.192;2023-02-13T18:06:15;100504.44;;;5.83;72.20
41140;BME280;26881;48.784;9.192;2023-02-13T18:11:37;100501.91;;;5.79;71.98
41140;BME280;26881;48.784;9.192;2023-02-13T18:16:59;100514.97;;;5.63;71.95
41140;BME280;26881;48.784;9.192;2023-02-13T18:22:21;100524.66;;;5.40;74.29
41140;BME280;26881;48.784;9.192;2023-02-13T18:27:43;100523.00;;;5.33;73.72
41140;BME280;26881;48.784;9.192;2023-02-13T18:33:05;100523.06;;;5.20;74.52
41140;BME280;26881;48.784;9.192;2023-02-13T18:38:27;100524.88;;;5.03;75.29
41140;BME280;26881;48.784;9.192;2023-02-13T18:43:49;100523.25;;;4.90;75.98
41140;BME280;26881;48.784;9.192;2023-02-13T18:49:11;100524.94;;;4.89;76.34
41140;BME280;26881;48.784;9.192;2023-02-13T18:54:33;100532.00;;;4.58;76.81
41140;BME280;26881;48.784;9.192;2023-02-13T18:59:54;100539.72;;;4.72;76.68
41140;BME280;26881;48.784;9.192;2023-02-13T19:05:16;100536.25;;;4.70;77.15
41140;BME280;26881;48.784;9.192;2023-02-13T19:10:38;100538.00;;;4.68;76.93
41140;BME280;26881;48.784;9.192;2023-02-13T19:16:08;100544.00;;;4.80;76.62
41140;BME280;26881;48.784;9.192;2023-02-13T19:21:32;100541.44;;;4.70;76.52
41140;BME280;26881;48.784;9.192;2023-02-13T19:26:54;100542.34;;;4.69;76.43
41140;BME280;26881;48.784;9.192;2023-02-13T19:32:16;100538.88;;;4.60;76.22
41140;BME280;26881;48.784;9.192;2023-02-13T19:37:37;100536.34;;;4.43;76.68
41140;BME280;26881;48.784;9.192;2023-02-13T19:43:05;100534.63;;;4.50;76.18
41140;BME280;26881;48.784;9.192;2023-02-13T19:48:27;100533.81;;;4.16;77.28
41140;BME280;26881;48.784;9.192;2023-02-13T19:53:54;100534.69;;;4.01;77.92
41140;BME280;26881;48.784;9.192;2023-02-13T19:59:17;100536.41;;;3.93;77.91
41140;BME280;26881;48.784;9.192;2023-02-13T20:04:38;100538.16;;;3.75;78.71
41140;BME280;26881;48.784;9.192;2023-02-13T20:10:00;100522.63;;;3.65;79.48
41140;BME280;26881;48.784;9.192;2023-02-13T20:15:23;100515.72;;;3.61;79.55
41140;BME280;26881;48.784;9.192;2023-02-13T20:20:45;100519.19;;;3.78;79.12
41140;BME280;26881;48.784;9.192;2023-02-13T20:26:09;100525.22;;;3.83;78.92
41140;BME280;26881;48.784;9.192;2023-02-13T20:31:32;100527.78;;;3.91;77.82
41140;BME280;26881;48.784;9.192;2023-02-13T20:36:55;100530.41;;;3.80;78.30
41140;BME280;26881;48.784;9.192;2023-02-13T20:42:16;100540.72;;;4.11;76.41
41140;BME280;26881;48.784;9.192;2023-02-13T20:47:38;100537.28;;;4.03;76.82
41140;BME280;26881;48.784;9.192;2023-02-13T20:53:02;100533.84;;;3.71;77.45
41140;BME280;26881;48.784;9.192;2023-02-13T20:58:23;100537.28;;;3.75;77.02
41140;BME280;26881;48.784;9.192;2023-02-13T21:03:46;100530.38;;;3.55;78.13
41140;BME280;26881;48.784;9.192;2023-02-13T21:09:11;100520.03;;;3.48;78.98
41140;BME280;26881;48.784;9.192;2023-02-13T21:14:33;100508.75;;;3.10;80.79
41140;BME280;26881;48.784;9.192;2023-02-13T21:19:55;100507.03;;;3.26;81.02
41140;BME280;26881;48.784;9.192;2023-02-13T21:25:16;100508.81;;;3.55;79.10
41140;BME280;26881;48.784;9.192;2023-02-13T21:30:39;100511.41;;;3.50;79.03
41140;BME280;26881;48.784;9.192;2023-02-13T21:36:03;100504.50;;;3.52;78.28
41140;BME280;26881;48.784;9.192;2023-02-13T21:41:25;100507.94;;;3.39;78.60
41140;BME280;26881;48.784;9.192;2023-02-13T21:46:47;100502.75;;;3.33;78.83
41140;BME280;26881;48.784;9.192;2023-02-13T21:52:09;100501.88;;;3.29;78.57
41140;BME280;26881;48.784;9.192;2023-02-13T21:57:31;100492.38;;;3.28;78.72
41140;BME280;26881;48.784;9.192;2023-02-13T22:02:53;100489.78;;;3.10;79.15
41140;BME280;26881;48.784;9.192;2023-02-13T22:08:14;100494.09;;;3.14;79.54
41140;BME280;26881;48.784;9.192;2023-02-13T22:13:37;100495.84;;;3.15;79.57
41140;BME280;26881;48.784;9.192;2023-02-13T22:19:03;100494.97;;;3.24;78.84
41140;BME280;26881;48.784;9.192;2023-02-13T22:24:25;100501.00;;;3.23;78.84
41140;BME280;26881;48.784;9.192;2023-02-13T22:29:49;100503.59;;;3.15;79.49
41140;BME280;26881;48.784;9.192;2023-02-13T22:35:11;100509.63;;;3.12;79.21
41140;BME280;26881;48.784;9.192;2023-02-13T22:40:34;100501.84;;;3.03;79.51
41140;BME280;26881;48.784;9.192;2023-02-13T22:46:01;100501.00;;;3.13;78.85
41140;BME280;26881;48.784;9.192;2023-02-13T22:51:25;100505.28;;;3.11;79.43
41140;BME280;26881;48.784;9.192;2023-02-13T22:56:47;100497.50;;;3.02;79.57
41140;BME280;26881;48.784;9.192;2023-02-13T23:02:09;100500.13;;;3.14;79.13
41140;BME280;26881;48.784;9.192;2023-02-13T23:07:31;100493.19;;;3.03;79.28
41140;BME280;26881;48.784;9.192;2023-02-13T23:12:53;100496.63;;;2.91;79.62
41140;BME280;26881;48.784;9.192;2023-02-13T23:18:14;100490.53;;;2.70;80.69
41140;BME280;26881;48.784;9.192;2023-02-13T23:23:38;100488.88;;;2.88;80.20
41140;BME280;26881;48.784;9.192;2023-02-13T23:29:00;100494.88;;;2.81;80.41
41140;BME280;26881;48.784;9.192;2023-02-13T23:34:21;100498.25;;;2.61;80.72
41140;BME280;26881;48.784;9.192;2023-02-13T23:39:43;100485.38;;;2.70;80.33
41140;BME280;26881;48.784;9.192;2023-02-13T23:45:05;100485.34;;;2.75;80.86
41140;BME280;26881;48.784;9.192;2023-02-13T23:50:27;100488.78;;;2.68;80.11
41140;BME280;26881;48.784;9.192;2023-02-13T23:55:49;100483.53;;;2.45;80.98
